Time,TemperatureF,DewpointF,PressureIn,WindDirection,WindDirectionDegrees,WindSpeedMPH,WindSpeedGustMPH,Humidity,HourlyPrecipIn,Conditions,Clouds,dailyrainin,SoftwareType,DateUTC
2013-01-16 00:01:00,31.7,30.2,29.61,WSW,240,1.0,11.0,94,0.00,,---,0.00,VWS V14.01,2013-01-16 07:01:00,
2013-01-16 00:31:00,33.5,31.7,29.62,West,261,1.0,9.0,93,0.00,,---,0.00,VWS V14.01,2013-01-16 07:31:00,
2013-01-16 01:01:00,34.7,32.6,29.63,West,269,3.0,9.0,92,0.00,,---,0.00,VWS V14.01,2013-01-16 08:01:00,
2013-01-16 01:31:00,34.6,32.5,29.64,WNW,297,1.0,6.0,92,0.00,,---,0.00,VWS V14.01,2013-01-16 08:31:00,
2013-01-16 02:01:00,35.7,33.6,29.67,NW,322,2.0,7.0,92,0.00,,---,0.00,VWS V14.01,2013-01-16 09:01:00,
2013-01-16 02:31:00,33.0,30.4,29.69,NNW,337,5.0,9.0,90,0.00,,---,0.00,VWS V14.01,2013-01-16 09:31:00,
2013-01-16 03:01:00,30.3,27.7,29.71,NNW,346,4.0,7.0,90,0.00,,---,0.00,VWS V14.01,2013-01-16 10:01:00,
2013-01-16 03:31:00,28.6,25.2,29.73,NNE,31,0.0,8.0,87,0.00,,---,0.00,VWS V14.01,2013-01-16 10:31:00,
2013-01-16 04:01:00,26.1,21.9,29.74,NNW,327,2.0,9.0,84,0.00,,---,0.00,VWS V14.01,2013-01-16 11:01:00,
2013-01-16 04:31:00,24.2,19.2,29.75,NNW,340,3.0,13.0,81,0.00,,---,0.00,VWS V14.01,2013-01-16 11:31:00,
2013-01-16 05:01:00,21.6,17.2,29.77,NNW,346,2.0,8.0,83,0.00,,---,0.00,VWS V14.01,2013-01-16 12:01:00,
2013-01-16 05:31:00,19.4,15.1,29.79,NW,320,5.0,9.0,83,0.00,,---,0.00,VWS V14.01,2013-01-16 12:31:00,
2013-01-16 06:01:00,18.2,14.5,29.80,NNW,346,1.0,7.0,85,0.00,,---,0.00,VWS V14.01,2013-01-16 13:01:00,
2013-01-16 06:31:00,17.2,13.2,29.82,NNW,346,0.0,8.0,84,0.00,,---,0.00,VWS V14.01,2013-01-16 13:31:00,
2013-01-16 07:01:00,16.5,12.8,29.83,NNW,346,3.0,6.0,85,0.00,,---,0.00,VWS V14.01,2013-01-16 14:01:00,
2013-01-16 07:31:00,16.0,12.3,29.86,NNW,331,5.0,7.0,85,0.00,,---,0.00,VWS V14.01,2013-01-16 14:31:00,
2013-01-16 08:02:00,15.3,12.1,29.88,NNW,340,2.0,8.0,87,0.00,,---,0.00,VWS V14.01,2013-01-16 15:02:00,
2013-01-16 08:31:00,14.9,11.7,29.90,North,351,6.0,8.0,87,0.00,,---,0.00,VWS V14.01,2013-01-16 15:31:00,
2013-01-16 09:01:00,14.3,10.9,29.94,NW,326,2.0,9.0,86,0.00,,---,0.00,VWS V14.01,2013-01-16 16:01:00,
2013-01-16 09:31:00,14.1,10.7,29.95,NNW,348,3.0,10.0,86,0.00,,---,0.00,VWS V14.01,2013-01-16 16:31:00,
2013-01-16 10:01:00,13.9,9.2,29.98,West,263,2.0,9.0,81,0.00,,---,0.00,VWS V14.01,2013-01-16 17:01:00,
2013-01-16 10:31:00,14.2,9.2,29.99,WNW,296,3.0,8.0,80,0.00,,---,0.00,VWS V14.01,2013-01-16 17:31:00,
2013-01-16 11:01:00,12.5,4.6,30.02,North,355,5.0,11.0,70,0.00,,---,0.00,VWS V14.01,2013-01-16 18:01:00,
2013-01-16 11:31:00,11.6,2.5,30.04,NNW,343,5.0,13.0,66,0.00,,---,0.00,VWS V14.01,2013-01-16 18:31:00,
2013-01-16 12:01:00,10.6,-0.2,30.06,North,350,3.0,12.0,61,0.00,,---,0.00,VWS V14.01,2013-01-16 19:01:00,
2013-01-16 12:31:00,10.1,0.0,30.08,NNW,329,4.0,11.0,63,0.00,,---,0.00,VWS V14.01,2013-01-16 19:31:00,
2013-01-16 13:01:00,9.4,-1.3,30.10,NW,322,7.0,9.0,61,0.00,,---,0.00,VWS V14.01,2013-01-16 20:01:00,
2013-01-16 13:31:00,9.4,-2.4,30.12,WNW,301,3.0,10.0,58,0.00,,---,0.00,VWS V14.01,2013-01-16 20:31:00,
2013-01-16 14:01:00,9.3,-2.1,30.16,NNW,336,6.0,9.0,59,0.00,,---,0.00,VWS V14.01,2013-01-16 21:01:00,
2013-01-16 14:31:00,8.5,-1.5,30.18,NW,317,3.0,8.0,63,0.00,,---,0.00,VWS V14.01,2013-01-16 21:31:00,
2013-01-16 15:01:00,7.1,-3.2,30.20,NW,323,3.0,9.0,62,0.00,,---,0.00,VWS V14.01,2013-01-16 22:01:00,
2013-01-16 15:31:00,5.9,-4.3,30.22,NNW,327,6.0,7.0,62,0.00,,---,0.00,VWS V14.01,2013-01-16 22:31:00,
2013-01-16 16:01:00,4.6,-6.2,30.25,NNW,346,1.0,9.0,60,0.00,,---,0.00,VWS V14.01,2013-01-16 23:01:00,
2013-01-16 16:31:00,3.5,-5.6,30.27,NNW,331,2.0,6.0,65,0.00,,---,0.00,VWS V14.01,2013-01-16 23:31:00,
2013-01-16 17:01:00,2.6,-5.8,30.29,NNW,339,0.0,7.0,67,0.00,,---,0.00,VWS V14.01,2013-01-17 00:01:00,
2013-01-16 17:31:00,1.7,-5.8,30.30,NW,326,2.0,6.0,70,0.00,,---,0.00,VWS V14.01,2013-01-17 00:31:00,
2013-01-16 18:01:00,1.0,-6.5,30.32,NW,325,2.0,5.0,70,0.00,,---,0.00,VWS V14.01,2013-01-17 01:01:00,
2013-01-16 18:31:00,0.4,-7.3,30.31,NNW,336,2.0,3.0,69,0.00,,---,0.00,VWS V14.01,2013-01-17 01:31:00,
2013-01-16 19:01:00,-0.1,-8.1,30.32,NW,321,2.0,7.0,68,0.00,,---,0.00,VWS V14.01,2013-01-17 02:01:00,
2013-01-16 19:31:00,-0.8,-8.8,30.34,NW,318,0.0,3.0,68,0.00,,---,0.00,VWS V14.01,2013-01-17 02:31:00,
2013-01-16 20:01:00,-1.3,-10.2,30.36,NNW,330,0.0,4.0,65,0.00,,---,0.00,VWS V14.01,2013-01-17 03:01:00,
2013-01-16 20:31:00,-1.6,-9.9,30.36,North,355,1.0,1.0,67,0.00,,---,0.00,VWS V14.01,2013-01-17 03:31:00,
2013-01-16 21:01:00,-2.0,-10.3,30.39,NNW,341,2.0,3.0,67,0.00,,---,0.00,VWS V14.01,2013-01-17 04:01:00,
2013-01-16 21:31:00,-1.9,-10.2,30.39,NNW,341,0.0,3.0,67,0.00,,---,0.00,VWS V14.01,2013-01-17 04:31:00,
2013-01-16 22:01:00,-1.5,-11.0,30.39,North,11,0.0,2.0,63,0.00,,---,0.00,VWS V14.01,2013-01-17 05:01:00,
2013-01-16 22:31:00,-0.7,-10.6,30.38,ENE,64,0.0,3.0,62,0.00,,---,0.00,VWS V14.01,2013-01-17 05:31:00,
2013-01-16 23:01:00,0.1,-9.5,30.38,ENE,65,0.0,1.0,63,0.00,,---,0.00,VWS V14.01,2013-01-17 06:01:00,
2013-01-16 23:31:00,0.2,-10.4,30.38,ENE,66,0.0,1.0,60,0.00,,---,0.00,VWS V14.01,2013-01-17 06:31:00,